Time;durP1;ratioP1;P1;durP2;ratioP2;P2;SDS_P1;SDS_P2;PMS_P1;PMS_P2;Temp;Humidity;BMP_temperature;BMP_pressure;BME280_temperature;BME280_humidity;BME280_pressure;Samples;Min_cycle;Max_cycle;Signal;HPM_P1;HPM_P2
2022/07/05 00:00:30;;;;;;;3.15;2.78;;;17.60;99.90;;;18.34;72.19;98180.72;5140794;28;20227;-58
2022/07/05 00:03:03;;;;;;;2.85;2.75;;;17.50;99.90;;;18.32;71.46;98177.19;5136747;28;20233;-54
2022/07/05 00:05:37;;;;;;;3.20;3.00;;;17.50;99.90;;;18.32;71.12;98181.50;5140002;28;20206;-56
2022/07/05 00:08:11;;;;;;;3.22;3.03;;;17.50;99.90;;;18.34;71.43;98185.88;5141230;28;20648;-59
2022/07/05 00:10:45;;;;;;;3.38;2.85;;;17.40;99.90;;;18.28;71.98;98183.09;5136218;28;20223;-57
2022/07/05 00:13:18;;;;;;;2.92;2.72;;;17.40;99.90;;;18.18;73.56;98181.91;5141076;28;20680;-56
2022/07/05 00:15:52;;;;;;;3.50;3.22;;;17.40;99.90;;;18.12;73.42;98183.44;5139224;28;20200;-54
2022/07/05 00:18:25;;;;;;;3.40;3.20;;;17.30;99.90;;;18.10;73.24;98187.69;5137134;28;20200;-56
2022/07/05 00:20:58;;;;;;;2.83;2.40;;;17.30;99.90;;;18.12;73.26;98186.03;5136421;28;20298;-55
2022/07/05 00:23:33;;;;;;;2.80;2.60;;;17.20;99.90;;;18.04;72.60;98185.75;5130986;28;20213;-59
2022/07/05 00:26:06;;;;;;;3.05;2.95;;;17.20;99.90;;;17.99;72.79;98183.00;5138760;28;20200;-53
2022/07/05 00:28:39;;;;;;;2.88;2.78;;;17.10;99.90;;;17.96;73.06;98185.50;5141111;28;20263;-55
2022/07/05 00:31:13;;;;;;;3.28;3.08;;;17.00;99.90;;;17.91;73.75;98189.66;5137038;28;20267;-56
2022/07/05 00:33:46;;;;;;;3.53;3.17;;;17.00;99.90;;;17.87;74.31;98186.91;5142370;28;20648;-54
2022/07/05 00:36:19;;;;;;;3.05;2.90;;;17.00;99.90;;;17.82;74.30;98186.75;5138405;28;20209;-56
2022/07/05 00:38:53;;;;;;;3.35;3.10;;;17.00;99.90;;;17.82;74.16;98191.06;5131257;28;20204;-55
2022/07/05 00:41:27;;;;;;;3.45;3.20;;;16.90;99.90;;;17.81;74.07;98197.94;5141458;28;20703;-55
2022/07/05 00:44:04;;;;;;;3.25;3.05;;;16.90;99.90;;;17.78;74.85;98193.53;5137884;28;20718;-60
2022/07/05 00:46:39;;;;;;;3.55;3.13;;;16.90;99.90;;;17.71;75.54;98183.78;5139510;28;20656;-52
2022/07/05 00:49:12;;;;;;;3.55;3.25;;;16.80;99.90;;;17.62;76.11;98190.34;5137388;28;20266;-56
2022/07/05 00:51:45;;;;;;;3.40;3.20;;;16.80;99.90;;;17.58;75.81;98196.25;5140490;28;20223;-54
2022/07/05 00:54:40;;;;;;;3.92;3.40;;;16.80;99.90;;;17.49;74.94;98191.63;5139506;28;20657;-57
2022/07/05 00:57:14;;;;;;;2.85;2.65;;;16.60;99.90;;;17.40;74.15;98189.59;5136799;28;20250;-56
2022/07/05 00:59:48;;;;;;;3.15;2.97;;;16.50;99.90;;;17.23;73.76;98186.41;5138222;28;20196;-56
2022/07/05 01:02:23;;;;;;;3.40;3.10;;;16.30;99.90;;;17.07;72.60;98187.53;5139946;28;20751;-51
2022/07/05 01:04:56;;;;;;;2.95;2.75;;;16.10;99.90;;;16.99;71.95;98186.38;5136768;28;20200;-55
2022/07/05 01:07:30;;;;;;;2.90;2.70;;;16.10;99.90;;;16.82;72.28;98188.31;5136551;28;20898;-54
2022/07/05 01:10:05;;;;;;;3.15;2.90;;;16.00;99.90;;;16.79;72.85;98197.66;5133374;28;20220;-54
2022/07/05 01:12:40;;;;;;;3.20;3.00;;;15.80;99.90;;;16.83;73.79;98191.81;5140325;28;20597;-52
2022/07/05 01:15:14;;;;;;;3.55;2.72;;;15.90;99.90;;;16.82;75.80;98193.47;5136866;28;20195;-52
2022/07/05 01:17:47;;;;;;;3.28;3.17;;;16.00;99.90;;;16.82;75.46;98193.47;5136794;28;20656;-52
2022/07/05 01:20:20;;;;;;;3.13;2.92;;;16.10;99.90;;;16.83;75.63;98200.44;5136066;28;20325;-55
2022/07/05 01:22:59;;;;;;;3.55;3.28;;;16.10;99.90;;;16.88;76.33;98198.91;5139331;28;20220;-52
2022/07/05 01:25:32;;;;;;;3.50;3.30;;;16.20;99.90;;;16.92;77.28;98192.16;5141698;28;20204;-57
2022/07/05 01:28:06;;;;;;;3.38;3.13;;;16.20;99.90;;;16.97;76.70;98197.47;5137825;28;20232;-54
2022/07/05 01:30:41;;;;;;;3.58;3.28;;;16.30;99.90;;;16.96;76.34;98191.44;5137619;28;20724;-53
2022/07/05 01:33:15;;;;;;;3.13;2.97;;;16.20;99.90;;;16.99;76.71;98195.81;5137570;28;20202;-54
2022/07/05 01:35:48;;;;;;;4.57;3.50;;;16.20;99.90;;;16.96;77.23;98193.13;5137316;28;20242;-55
2022/07/05 01:38:23;;;;;;;3.58;3.30;;;16.20;99.90;;;16.93;75.82;98190.44;5141718;28;20832;-55
2022/07/05 01:40:56;;;;;;;3.53;3.20;;;16.10;99.90;;;16.90;77.80;98188.63;5138727;28;20247;-58
2022/07/05 01:43:29;;;;;;;3.45;3.25;;;16.10;99.90;;;16.91;77.27;98203.28;5136511;28;20653;-54
2022/07/05 01:46:05;;;;;;;3.70;3.40;;;16.10;99.90;;;16.85;78.42;98192.72;5138090;28;20204;-61
2022/07/05 01:48:40;;;;;;;3.80;3.25;;;16.10;99.90;;;16.83;78.33;98194.38;5138558;28;20192;-58
2022/07/05 01:51:21;;;;;;;3.65;3.33;;;16.10;99.90;;;16.71;77.42;98194.78;5131968;28;20270;-57
2022/07/05 01:53:56;;;;;;;3.10;3.00;;;15.90;99.90;;;16.64;77.48;98197.94;5139843;28;20204;-53
2022/07/05 01:56:29;;;;;;;3.50;3.30;;;15.80;99.90;;;16.67;79.42;98192.88;5134363;28;20703;-55
2022/07/05 01:59:02;;;;;;;3.42;3.05;;;15.90;99.90;;;16.66;79.25;98197.16;5140897;28;20255;-60
2022/07/05 02:01:38;;;;;;;3.83;3.58;;;15.90;99.90;;;16.72;78.22;98195.66;5135464;28;20622;-56
2022/07/05 02:04:12;;;;;;;3.60;3.38;;;15.90;99.90;;;16.65;79.87;98200.59;5135318;28;20324;-58
2022/07/05 02:06:46;;;;;;;3.35;3.05;;;15.90;99.90;;;16.55;78.07;98203.63;5139428;28;20214;-55
2022/07/05 02:09:20;;;;;;;3.95;3.65;;;15.80;99.90;;;16.55;78.70;98201.03;5138665;28;20200;-53
2022/07/05 02:11:54;;;;;;;3.50;3.30;;;15.70;99.90;;;16.55;78.18;98203.63;5136776;28;21786;-53
2022/07/05 02:14:28;;;;;;;3.92;3.72;;;15.70;99.90;;;16.53;79.85;98200.09;5135983;28;20192;-53
2022/07/05 02:17:01;;;;;;;3.60;3.30;;;15.80;99.90;;;16.49;79.33;98198.22;5134518;28;20204;-53
2022/07/05 02:19:38;;;;;;;3.17;2.97;;;15.70;99.90;;;16.48;78.80;98191.28;5137427;28;20516;-52
2022/07/05 02:22:12;;;;;;;3.67;3.30;;;15.70;99.90;;;16.42;79.06;98191.03;5136158;28;20215;-59
2022/07/05 02:24:47;;;;;;;3.97;3.70;;;15.70;99.90;;;16.42;80.12;98191.03;5133708;28;20204;-59
2022/07/05 02:27:20;;;;;;;3.40;3.10;;;15.70;99.90;;;16.42;79.28;98191.94;5135236;28;20559;-59
2022/07/05 02:29:53;;;;;;;3.63;3.40;;;15.70;99.90;;;16.40;79.22;98192.69;5132412;28;20282;-54
2022/07/05 02:32:27;;;;;;;4.00;3.60;;;15.50;99.90;;;16.41;79.07;98184.13;5139992;28;20680;-52
2022/07/05 02:35:00;;;;;;;3.53;3.28;;;15.60;99.90;;;16.33;79.27;98185.53;5137601;28;20204;-54
2022/07/05 02:37:33;;;;;;;3.88;3.58;;;15.50;99.90;;;16.26;78.42;98180.94;5138731;28;20696;-53
2022/07/05 02:40:10;;;;;;;3.97;3.60;;;15.50;99.90;;;16.21;79.04;98186.78;5135986;28;20235;-62
2022/07/05 02:42:44;;;;;;;5.13;3.40;;;15.50;99.90;;;16.16;78.66;98192.59;5136781;28;20620;-57
2022/07/05 02:45:17;;;;;;;3.53;3.33;;;15.30;99.90;;;16.06;79.47;98191.34;5138611;28;20274;-55
2022/07/05 02:47:50;;;;;;;4.50;3.80;;;15.30;99.90;;;16.08;80.34;98197.44;5136678;28;20205;-58
2022/07/05 02:50:23;;;;;;;3.60;3.28;;;15.30;99.90;;;16.14;79.42;98196.81;5133275;28;20224;-53
2022/07/05 02:52:56;;;;;;;4.13;3.60;;;15.30;99.90;;;16.10;78.54;98195.78;5139127;28;20204;-54
2022/07/05 02:55:31;;;;;;;3.30;3.10;;;15.20;99.90;;;16.01;79.20;98198.00;5141594;28;20208;-56
2022/07/05 02:58:04;;;;;;;4.00;3.70;;;15.20;99.90;;;15.94;80.50;98203.75;5141643;28;20251;-55
2022/07/05 03:00:37;;;;;;;4.10;3.90;;;15.10;99.90;;;15.93;81.95;98201.97;5137731;28;20223;-57
2022/07/05 03:03:11;;;;;;;4.00;3.72;;;15.20;99.90;;;15.91;81.82;98201.91;5134582;28;20224;-53
2022/07/05 03:05:44;;;;;;;3.60;3.33;;;15.20;99.90;;;15.91;80.97;98206.16;5139010;28;20199;-56
2022/07/05 03:08:17;;;;;;;4.13;3.72;;;15.20;99.90;;;15.93;81.25;98204.53;5138708;28;20216;-56
2022/07/05 03:10:52;;;;;;;3.80;3.50;;;15.20;99.90;;;15.93;80.96;98201.97;5138221;28;20231;-56
2022/07/05 03:13:25;;;;;;;3.92;3.60;;;15.20;99.90;;;15.88;81.31;98206.03;5141259;28;20291;-55
2022/07/05 03:15:58;;;;;;;4.20;3.80;;;15.10;99.90;;;15.88;81.03;98206.03;5138668;28;20207;-55
2022/07/05 03:18:31;;;;;;;3.53;3.33;;;15.10;99.90;;;15.84;81.30;98199.88;5136743;28;20215;-60
2022/07/05 03:21:05;;;;;;;3.92;3.53;;;15.10;99.90;;;15.80;81.30;98208.31;5136144;28;20311;-60
2022/07/05 03:23:38;;;;;;;4.00;3.70;;;15.00;99.90;;;15.81;81.51;98219.50;5139125;28;20255;-56
2022/07/05 03:26:13;;;;;;;3.83;3.53;;;15.10;99.90;;;15.76;81.48;98222.75;5137709;28;20958;-59
2022/07/05 03:28:46;;;;;;;3.70;3.40;;;15.00;99.90;;;15.72;80.68;98217.41;5137905;28;20286;-56
2022/07/05 03:31:19;;;;;;;3.50;3.30;;;15.00;99.90;;;15.76;80.67;98221.88;5136934;28;20322;-52
2022/07/05 03:33:52;;;;;;;4.20;3.80;;;15.00;99.90;;;15.73;79.39;98217.47;5139775;28;20663;-56
2022/07/05 03:36:26;;;;;;;3.45;3.25;;;14.90;99.90;;;15.68;81.12;98219.00;5139806;28;20204;-59
2022/07/05 03:38:59;;;;;;;4.05;3.50;;;14.80;99.90;;;15.55;80.09;98226.97;5138818;28;20203;-59
2022/07/05 03:41:33;;;;;;;3.30;3.10;;;14.80;99.90;;;15.44;80.19;98223.03;5138785;28;20310;-59
2022/07/05 03:44:06;;;;;;;3.90;3.35;;;14.60;99.90;;;15.39;80.97;98230.53;5138227;28;20224;-60
2022/07/05 03:46:40;;;;;;;4.15;3.75;;;14.60;99.90;;;15.38;81.78;98228.78;5139908;28;20250;-64
2022/07/05 03:49:15;;;;;;;3.50;3.30;;;14.70;99.90;;;15.45;81.00;98235.09;5136547;28;20254;-54
2022/07/05 03:51:48;;;;;;;3.35;3.15;;;14.70;99.90;;;15.44;80.68;98229.06;5138700;28;20303;-57
2022/07/05 03:54:22;;;;;;;3.63;3.30;;;14.60;99.90;;;15.39;81.62;98239.97;5143193;28;20295;-55
2022/07/05 03:56:56;;;;;;;3.78;3.42;;;14.60;99.90;;;15.38;81.58;98243.38;5137381;28;20227;-58
2022/07/05 03:59:29;;;;;;;4.13;3.80;;;14.70;99.90;;;15.37;81.08;98246.78;5137613;28;20656;-61
2022/07/05 04:02:03;;;;;;;3.72;3.42;;;14.60;99.90;;;15.40;81.35;98252.06;5136671;28;20403;-59
2022/07/05 04:04:36;;;;;;;4.00;3.70;;;14.60;99.90;;;15.46;81.50;98250.63;5139315;28;20318;-61
2022/07/05 04:07:10;;;;;;;4.03;3.72;;;14.70;99.90;;;15.47;81.99;98247.22;5140658;28;20200;-59
2022/07/05 04:09:43;;;;;;;4.28;3.95;;;14.80;99.90;;;15.49;82.38;98252.47;5137554;28;20200;-61
2022/07/05 04:12:18;;;;;;;4.13;3.85;;;14.70;99.90;;;15.53;82.57;98255.22;5138293;28;20247;-61
2022/07/05 04:14:51;;;;;;;3.67;3.47;;;14.80;99.90;;;15.62;81.48;98264.16;5134403;28;20274;-59
2022/07/05 04:17:25;;;;;;;4.22;3.90;;;14.90;99.90;;;15.59;81.65;98264.03;5135417;28;20239;-61
2022/07/05 04:19:58;;;;;;;4.28;3.88;;;14.90;99.90;;;15.66;81.20;98256.66;5141631;28;20318;-61
2022/07/05 04:22:31;;;;;;;4.15;3.85;;;14.90;99.90;;;15.68;80.71;98259.31;5138570;28;20208;-62
2022/07/05 04:25:17;;;;;;;4.03;3.65;;;14.80;99.90;;;15.70;81.91;98260.28;5139593;28;20651;-62
2022/07/05 04:27:55;;;;;;;5.18;4.07;;;14.90;99.90;;;15.69;82.33;98267.13;5133240;28;20287;-61
2022/07/05 04:30:28;;;;;;;4.00;3.70;;;15.00;99.90;;;15.70;81.64;98263.72;5138487;28;20311;-60
2022/07/05 04:33:02;;;;;;;3.97;3.67;;;15.00;99.90;;;15.68;82.12;98264.47;5133751;28;20227;-60
2022/07/05 04:35:35;;;;;;;4.00;3.63;;;15.00;99.90;;;15.69;81.59;98271.41;5135810;28;20235;-61
2022/07/05 04:38:08;;;;;;;3.78;3.47;;;15.00;99.90;;;15.72;81.12;98268.97;5135673;28;20196;-61
2022/07/05 04:40:42;;;;;;;4.30;3.90;;;15.00;99.90;;;15.66;80.46;98271.25;5136493;28;20229;-58
2022/07/05 04:43:16;;;;;;;4.20;3.90;;;15.00;99.90;;;15.72;80.67;98267.25;5134009;28;20204;-60
2022/07/05 04:45:49;;;;;;;3.90;3.67;;;15.00;99.90;;;15.84;80.25;98276.34;5133304;28;20223;-61
2022/07/05 04:48:28;;;;;;;4.13;3.67;;;15.00;99.90;;;16.24;80.40;98278.03;5138633;28;20219;-59
2022/07/05 04:51:01;;;;;;;4.00;3.70;;;15.60;99.90;;;17.01;77.71;98271.66;5137606;28;20266;-60
2022/07/05 04:53:57;;;;;;;;;;;;;;;;;;;;;
2022/07/05 04:56:50;;;;;;;3.55;3.35;;;17.00;99.90;;;18.93;67.85;98271.47;5119686;28;20200;-61
2022/07/05 04:59:25;;;;;;;3.50;3.20;;;18.10;99.90;;;19.58;65.36;98282.03;5135992;28;20204;-60
2022/07/05 05:01:58;;;;;;;3.30;3.00;;;18.30;99.90;;;20.18;62.86;98273.28;5136074;28;20215;-61
2022/07/05 05:04:32;;;;;;;3.50;3.20;;;18.70;99.90;;;20.75;61.11;98272.13;5136961;28;20232;-61
2022/07/05 05:07:05;;;;;;;3.97;2.97;;;19.10;99.90;;;21.01;59.63;98272.72;5135552;28;20791;-59
2022/07/05 05:09:39;;;;;;;2.75;2.55;;;19.40;99.90;;;21.46;58.27;98269.38;5133520;28;20203;-60
2022/07/05 05:12:12;;;;;;;3.03;2.72;;;19.60;99.90;;;21.67;57.17;98275.00;5137753;28;20695;-61
2022/07/05 05:14:46;;;;;;;2.97;2.65;;;19.80;99.90;;;21.88;56.78;98278.88;5139453;28;20243;-61
2022/07/05 05:17:19;;;;;;;2.70;2.50;;;20.00;99.90;;;22.33;55.12;98268.44;5134156;28;20203;-61
2022/07/05 05:19:53;;;;;;;2.88;2.60;;;20.30;99.90;;;22.58;53.87;98276.69;5139464;28;20259;-60
2022/07/05 05:22:26;;;;;;;2.70;2.60;;;20.60;99.30;;;22.73;53.57;98274.31;5134562;28;20703;-61
2022/07/05 05:24:59;;;;;;;3.35;2.78;;;20.70;98.90;;;23.02;52.63;98271.28;5140507;28;20770;-60
2022/07/05 05:27:32;;;;;;;2.85;2.65;;;20.90;98.50;;;23.10;52.42;98267.06;5136281;28;20391;-61
2022/07/05 05:30:09;;;;;;;2.60;2.40;;;21.00;98.20;;;23.36;51.50;98267.41;5138155;28;20267;-61
2022/07/05 05:32:42;;;;;;;2.85;2.65;;;21.10;97.70;;;23.53;51.13;98271.09;5135601;28;20196;-61
2022/07/05 05:35:18;;;;;;;2.90;2.70;;;21.30;97.40;;;23.76;50.35;98273.16;5136939;28;20219;-59
2022/07/05 05:37:53;;;;;;;3.28;2.97;;;21.50;96.70;;;23.94;50.25;98280.28;5139266;28;20198;-61
2022/07/05 05:40:27;;;;;;;2.90;2.70;;;21.70;96.90;;;24.11;49.42;98270.91;5131642;28;20236;-61
2022/07/05 05:43:01;;;;;;;2.92;2.70;;;21.90;96.20;;;24.33;48.91;98266.75;5140327;28;20208;-61
2022/07/05 05:45:35;;;;;;;2.92;2.83;;;22.00;96.10;;;24.44;48.79;98267.75;5141609;28;20639;-62
2022/07/05 05:48:08;;;;;;;2.75;2.50;;;22.10;95.80;;;24.43;49.39;98259.91;5137093;28;20203;-59
2022/07/05 05:50:42;;;;;;;3.72;2.63;;;22.10;95.90;;;24.54;49.32;98265.22;5141293;28;20577;-62
2022/07/05 05:53:15;;;;;;;4.35;3.38;;;22.10;96.00;;;24.48;49.60;98277.38;5134077;28;20255;-61
2022/07/05 05:55:48;;;;;;;3.25;2.95;;;22.10;96.20;;;24.28;50.14;98274.53;5138974;28;20196;-62
2022/07/05 05:58:24;;;;;;;3.67;2.85;;;21.90;96.30;;;24.63;49.10;98280.97;5129635;28;20660;-61
2022/07/05 06:00:58;;;;;;;3.00;2.72;;;22.30;95.90;;;25.11;48.34;98275.19;5139323;28;20274;-62
2022/07/05 06:03:32;;;;;;;3.25;2.95;;;22.50;96.10;;;25.37;47.41;98282.34;5135420;28;20246;-61
2022/07/05 06:06:05;;;;;;;3.20;2.70;;;22.60;95.60;;;25.47;47.31;98284.16;5139056;28;20252;-62
2022/07/05 06:08:38;;;;;;;3.47;2.65;;;22.80;95.30;;;25.65;47.40;98287.72;5134608;28;20263;-61
2022/07/05 06:11:13;;;;;;;3.15;2.80;;;22.90;95.50;;;26.08;46.49;98287.88;5134142;28;20300;-62
2022/07/05 06:13:46;;;;;;;4.32;3.08;;;23.10;95.10;;;26.04;47.12;98287.88;5134028;28;20211;-62
2022/07/05 06:16:20;;;;;;;3.17;2.97;;;23.20;95.60;;;26.37;46.70;98290.53;5138658;28;20554;-62
2022/07/05 06:18:53;;;;;;;3.45;2.80;;;23.40;95.40;;;26.71;45.85;98291.47;5136721;28;20258;-62
2022/07/05 06:21:27;;;;;;;3.42;3.13;;;23.60;94.90;;;26.86;45.65;98295.81;5135591;28;20234;-62
2022/07/05 06:24:00;;;;;;;3.30;3.10;;;23.70;94.80;;;26.99;45.31;98297.56;5136770;28;20227;-62
2022/07/05 06:26:33;;;;;;;3.42;2.95;;;23.80;94.90;;;27.12;45.24;98306.28;5138260;28;20270;-60
2022/07/05 06:29:06;;;;;;;3.67;3.10;;;24.10;94.30;;;27.53;44.16;98302.72;5127283;28;20628;-62
2022/07/05 06:31:41;;;;;;;3.00;2.72;;;24.50;94.00;;;27.69;44.49;98303.50;5140029;28;20290;-62
2022/07/05 06:34:14;;;;;;;3.20;3.00;;;24.60;94.00;;;27.84;43.72;98307.00;5141439;28;20234;-61
2022/07/05 06:36:47;;;;;;;3.40;3.05;;;24.80;93.70;;;28.13;42.42;98302.44;5140839;28;20294;-62
2022/07/05 06:39:20;;;;;;;3.28;2.88;;;25.10;92.70;;;28.34;42.27;98304.06;5141354;28;20270;-61
2022/07/05 06:41:53;;;;;;;3.10;2.90;;;25.20;92.80;;;28.28;42.41;98303.22;5134634;28;20285;-62
2022/07/05 06:44:26;;;;;;;2.97;2.78;;;25.20;92.60;;;28.89;41.18;98306.28;5139735;28;20211;-61
2022/07/05 06:47:10;;;;;;;3.22;2.60;;;25.40;92.20;;;29.07;41.24;98310.53;5140643;28;20314;-61
2022/07/05 06:49:43;;;;;;;3.97;2.80;;;25.70;92.10;;;29.08;40.81;98310.53;5140589;28;20633;-60
2022/07/05 06:52:17;;;;;;;3.00;2.80;;;25.90;91.30;;;29.24;40.51;98302.47;5136827;28;20231;-62
2022/07/05 06:54:50;;;;;;;4.03;2.67;;;25.90;91.00;;;29.39;38.90;98305.81;5135768;28;20250;-61
2022/07/05 06:57:24;;;;;;;4.53;2.70;;;26.30;89.70;;;29.68;39.51;98306.41;5140223;28;20203;-60
2022/07/05 07:00:06;;;;;;;4.18;2.75;;;26.30;90.30;;;29.73;38.67;98302.81;5135240;28;20638;-62
2022/07/05 07:03:01;;;;;;;2.90;2.47;;;26.60;89.60;;;30.08;38.29;98299.69;5138245;28;20206;-62
2022/07/05 07:05:54;;;;;;;2.72;2.60;;;26.70;89.30;;;30.22;38.11;98301.31;5133589;28;20267;-61
2022/07/05 07:11:26;;;;;;;2.65;2.45;;;26.90;87.90;;;30.57;36.56;98306.03;5133209;28;20688;-62
2022/07/05 07:13:59;;;;;;;2.47;2.28;;;27.20;86.30;;;30.68;37.43;98305.88;5139937;28;21178;-62
2022/07/05 07:16:33;;;;;;;2.50;2.30;;;27.40;87.10;;;30.58;37.54;98309.53;5140231;28;20210;-61
2022/07/05 07:19:07;;;;;;;2.35;2.10;;;27.40;86.00;;;30.96;36.10;98309.81;5135334;28;20554;-62
2022/07/05 07:21:45;;;;;;;2.75;2.53;;;27.50;84.60;;;30.66;36.21;98310.31;5138717;28;20263;-63
2022/07/05 07:24:18;;;;;;;1.90;1.80;;;27.50;84.90;;;30.88;35.18;98308.22;5140135;28;20294;-63
2022/07/05 07:27:03;;;;;;;2.28;2.05;;;27.50;83.00;;;31.13;35.45;98319.19;5133559;28;20226;-62
2022/07/05 07:29:38;;;;;;;2.13;2.00;;;27.70;82.90;;;31.23;35.33;98325.19;5140917;28;20207;-62
2022/07/05 07:32:12;;;;;;;2.20;2.00;;;27.80;82.60;;;31.19;35.58;98322.63;5136902;28;20195;-62
2022/07/05 07:34:47;;;;;;;2.53;2.20;;;27.90;83.30;;;31.42;35.41;98327.50;5141800;28;20250;-63
2022/07/05 07:37:20;;;;;;;2.35;2.08;;;28.00;82.80;;;31.68;34.72;98334.03;5138939;28;20574;-62
2022/07/05 07:39:53;;;;;;;2.50;2.10;;;28.10;83.10;;;31.50;34.42;98329.09;5143360;28;20259;-62
2022/07/05 07:42:27;;;;;;;3.15;2.35;;;28.10;81.90;;;31.21;35.84;98325.22;5144109;28;20210;-62
2022/07/05 07:45:03;;;;;;;2.60;2.40;;;28.10;83.30;;;31.60;35.93;98326.25;5143708;28;20631;-63
2022/07/05 07:47:37;;;;;;;2.47;2.30;;;28.50;83.20;;;31.55;36.42;98324.59;5143289;28;20211;-61
2022/07/05 07:50:12;;;;;;;2.35;2.15;;;28.30;83.90;;;31.82;35.86;98329.34;5143195;28;20332;-63
2022/07/05 07:52:45;;;;;;;2.92;2.40;;;28.40;84.20;;;31.87;35.71;98330.09;5140268;28;20198;-61
2022/07/05 07:55:19;;;;;;;2.55;2.28;;;28.60;84.10;;;31.79;35.78;98328.50;5139180;28;20218;-63
2022/07/05 07:57:52;;;;;;;2.60;2.33;;;28.30;83.80;;;31.85;35.49;98324.00;5141586;28;20200;-62
2022/07/05 08:00:25;;;;;;;2.50;2.30;;;28.20;84.10;;;32.16;35.31;98323.31;5141423;28;20270;-63
2022/07/05 08:02:59;;;;;;;3.80;2.50;;;28.60;83.20;;;32.21;34.51;98324.09;5138357;28;20203;-62
2022/07/05 08:05:33;;;;;;;2.67;2.47;;;28.90;82.70;;;32.63;34.52;98325.84;5140989;28;20294;-62
2022/07/05 08:08:07;;;;;;;2.63;2.42;;;28.70;83.50;;;32.74;34.20;98324.66;5144346;28;20669;-62
2022/07/05 08:10:40;;;;;;;3.30;2.50;;;28.90;82.40;;;32.41;34.91;98321.00;5137355;28;20219;-61
2022/07/05 08:13:13;;;;;;;3.28;2.47;;;29.00;82.50;;;32.75;34.70;98320.22;5144266;28;20195;-62
2022/07/05 08:15:46;;;;;;;3.20;2.00;;;28.90;82.60;;;32.75;33.63;98315.78;5143706;28;20659;-62
2022/07/05 08:24:04;;;;;;;2.00;1.90;;;29.20;80.00;;;32.48;33.93;98313.81;5143206;28;20208;-63
2022/07/05 08:26:38;;;;;;;2.25;2.05;;;29.40;79.10;;;32.29;32.98;98316.88;5141248;28;20636;-61
2022/07/05 08:29:13;;;;;;;1.98;1.85;;;29.20;77.70;;;32.27;34.01;98321.31;5142987;28;20806;-63
2022/07/05 08:31:55;;;;;;;2.47;1.98;;;29.40;78.70;;;32.12;33.90;98319.03;5143246;28;20314;-62
2022/07/05 08:34:28;;;;;;;2.15;2.00;;;29.40;78.10;;;31.82;33.41;98318.75;5143580;28;20581;-61
2022/07/05 08:37:03;;;;;;;2.17;1.80;;;29.60;75.40;;;31.68;33.51;98322.56;5140969;28;20196;-63
2022/07/05 08:39:36;;;;;;;2.28;2.00;;;29.30;75.90;;;31.79;33.90;98318.84;5141349;28;20214;-62
2022/07/05 08:42:11;;;;;;;2.08;1.90;;;29.70;75.90;;;31.74;33.79;98314.53;5139509;28;20199;-63
2022/07/05 08:44:46;;;;;;;4.00;2.20;;;29.60;76.20;;;31.74;33.16;98317.19;5142787;28;20236;-62
2022/07/05 08:47:21;;;;;;;2.90;2.00;;;29.50;74.10;;;31.74;32.84;98312.75;5142864;28;20692;-63
2022/07/05 08:49:56;;;;;;;1.70;1.45;;;29.80;73.40;;;31.69;31.53;98314.63;5141632;28;20702;-63
2022/07/05 08:52:32;;;;;;;2.42;1.58;;;29.70;70.20;;;31.50;31.65;98307.97;5141004;28;20634;-63
2022/07/05 08:55:06;;;;;;;2.15;1.95;;;29.80;71.20;;;31.49;31.67;98308.88;5142123;28;20607;-62
2022/07/05 08:57:40;;;;;;;1.70;1.60;;;29.80;70.60;;;31.64;32.02;98311.19;5139645;28;20195;-60
2022/07/05 09:00:14;;;;;;;2.25;1.45;;;29.80;70.70;;;31.68;30.94;98312.00;5137591;28;20262;-65
2022/07/05 09:02:47;;;;;;;1.40;1.30;;;29.90;68.50;;;31.28;28.86;98311.00;5141438;28;20203;-63
2022/07/05 09:05:21;;;;;;;1.40;1.30;;;30.00;65.00;;;30.88;29.52;98305.56;5141936;28;20298;-62
2022/07/05 09:08:00;;;;;;;1.88;1.50;;;29.60;64.90;;;30.63;30.55;98303.28;5139374;28;20273;-62
2022/07/05 09:10:34;;;;;;;1.58;1.33;;;29.30;66.20;;;30.63;31.02;98310.34;5138200;28;20227;-62
2022/07/05 09:13:08;;;;;;;1.20;1.20;;;29.20;66.90;;;30.79;30.84;98303.97;5137026;28;20211;-63
2022/07/05 09:15:41;;;;;;;2.60;1.50;;;29.60;66.10;;;30.97;30.25;98311.56;5141181;28;20203;-62
2022/07/05 09:18:14;;;;;;;1.42;1.30;;;29.70;65.60;;;30.91;30.65;98303.75;5142503;28;20254;-62
2022/07/05 09:20:47;;;;;;;1.73;1.48;;;29.60;66.70;;;30.55;30.80;98309.59;5140341;28;20690;-60
2022/07/05 09:23:25;;;;;;;1.88;1.55;;;29.10;66.60;;;30.36;31.67;98307.25;5140731;28;20207;-62
2022/07/05 09:26:03;;;;;;;1.70;1.27;;;29.00;67.60;;;30.44;31.38;98307.13;5140662;28;20249;-62
2022/07/05 09:28:37;;;;;;;3.05;1.50;;;29.20;67.70;;;30.48;31.77;98308.84;5143621;28;20218;-59
2022/07/05 09:31:27;;;;;;;3.05;1.42;;;29.40;68.10;;;30.46;32.01;98300.94;5142038;28;20652;-63
2022/07/05 09:34:08;;;;;;;1.42;1.30;;;29.30;68.80;;;30.25;30.61;98306.53;5141353;28;20609;-62
2022/07/05 09:36:54;;;;;;;1.55;1.30;;;29.00;65.40;;;30.42;31.60;98304.53;5141318;28;20557;-62
2022/07/05 09:39:39;;;;;;;1.50;1.40;;;29.10;67.80;;;30.59;31.60;98308.63;5142463;28;20262;-62
2022/07/05 09:42:22;;;;;;;1.55;1.45;;;29.40;67.20;;;30.78;30.56;98307.44;5142545;28;20336;-61
2022/07/05 09:44:58;;;;;;;3.63;1.35;;;29.40;65.80;;;30.49;30.95;98311.44;5141676;28;20210;-62
2022/07/05 09:47:31;;;;;;;2.75;1.90;;;29.20;65.70;;;30.42;32.24;98307.16;5142983;28;20272;-61
2022/07/05 09:50:06;;;;;;;2.63;1.58;;;29.20;68.20;;;30.20;33.10;98311.84;5137801;28;20223;-62
2022/07/05 09:52:43;;;;;;;1.60;1.50;;;29.20;68.50;;;30.27;32.43;98310.00;5136041;28;20207;-61
2022/07/05 09:55:19;;;;;;;1.52;1.42;;;29.20;67.80;;;30.18;31.81;98310.13;5139527;28;20668;-62
2022/07/05 09:57:53;;;;;;;3.00;1.13;;;29.10;67.30;;;30.36;31.82;98309.91;5139627;28;20202;-62
2022/07/05 10:00:29;;;;;;;2.25;1.35;;;29.30;66.40;;;30.23;31.53;98309.19;5134767;28;20321;-62
2022/07/05 10:03:02;;;;;;;1.17;1.17;;;29.10;65.50;;;30.40;29.89;98310.72;5138430;28;20204;-60
2022/07/05 10:05:35;;;;;;;1.30;1.02;;;29.40;63.00;;;30.23;30.54;98309.19;5138875;28;20266;-62
2022/07/05 10:08:08;;;;;;;1.20;1.10;;;29.20;64.20;;;30.20;30.12;98313.63;5138853;28;20215;-62
2022/07/05 10:10:44;;;;;;;1.70;1.25;;;29.00;63.90;;;30.25;30.66;98311.81;5138467;28;20223;-62
2022/07/05 10:13:18;;;;;;;1.90;1.20;;;29.00;65.20;;;30.34;30.56;98310.81;5135348;28;20211;-62
2022/07/05 10:15:51;;;;;;;2.95;1.40;;;29.10;64.30;;;30.39;29.79;98315.13;5135170;28;20207;-62
2022/07/05 10:18:31;;;;;;;1.20;1.08;;;29.30;63.20;;;29.95;30.63;98319.22;5138234;28;20250;-60
2022/07/05 10:21:06;;;;;;;1.40;1.30;;;29.00;64.30;;;30.14;30.05;98318.97;5135674;28;20226;-60
2022/07/05 10:23:39;;;;;;;1.85;1.30;;;29.20;62.00;;;29.98;28.89;98305.97;5138663;28;20623;-61
2022/07/05 10:26:16;;;;;;;1.50;1.40;;;28.90;61.70;;;30.05;30.54;98310.31;5137399;28;20279;-61
2022/07/05 10:28:53;;;;;;;1.30;1.20;;;29.10;63.60;;;29.98;31.02;98308.63;5137892;28;20242;-61
2022/07/05 10:31:33;;;;;;;1.75;1.50;;;29.10;64.40;;;29.80;30.03;98317.66;5133950;28;20227;-61
2022/07/05 10:34:08;;;;;;;1.80;1.25;;;29.00;62.30;;;29.72;31.34;98318.63;5130685;28;20267;-55
2022/07/05 10:37:01;;;;;;;1.58;1.48;;;28.80;64.30;;;29.74;31.97;98308.97;5140865;28;20262;-57
2022/07/05 10:39:36;;;;;;;3.45;1.40;;;28.70;66.10;;;29.48;31.79;98312.75;5140150;28;20203;-59
2022/07/05 10:42:11;;;;;;;2.22;1.35;;;28.70;63.40;;;29.47;29.76;98310.13;5138475;28;20734;-54
2022/07/05 10:44:44;;;;;;;2.42;1.38;;;28.70;61.60;;;29.72;29.40;98306.31;5139930;28;20254;-61
2022/07/05 10:47:18;;;;;;;1.40;1.30;;;28.70;60.00;;;29.78;30.84;98303.63;5139404;28;20577;-60
2022/07/05 10:50:03;;;;;;;1.50;1.40;;;28.70;63.40;;;29.78;31.67;98313.28;5132852;28;20215;-55
2022/07/05 10:52:36;;;;;;;1.52;1.30;;;28.90;65.20;;;29.95;30.24;98300.75;5133267;28;20203;-61
2022/07/05 10:55:24;;;;;;;1.65;1.35;;;28.90;63.50;;;30.12;29.68;98302.28;5128354;28;20208;-58
2022/07/05 10:58:28;;;;;;;3.58;1.40;;;29.00;62.70;;;29.73;31.55;98312.47;5124942;28;20642;-57
2022/07/05 11:01:44;;;;;;;2.38;1.40;;;28.80;65.00;;;29.53;31.26;98302.13;5131403;28;20267;-57